Weather at Col De La Fenetre Altiport [CLOSED]

Public forecast

Using degrees Celsius for public forecast. Weather courtesy of forecast.io.

Closest aviation weather report (METAR) to Col De La Fenetre Altiport

Closest report is Chambéry-Savoie Airport, 30.9 nm (57.2 km) NW. Retrieved 2020/09/21 17:30 UTC (1 minute ago):

LFLB 211730Z AUTO VRB02KT 9999 ///TCU 18/17 Q1015 BECMG FEW020 SCT150

Closest aviation forecast (TAF) to Col De La Fenetre Altiport

Closest forecast is Chambéry-Savoie Airport, 30.9 nm (57.2 km) NW. Retrieved 2020/09/21 12:21 UTC (5 hours ago):

TAF LFLB 211100Z 2112/2212 36004KT 9999 FEW020 SCT150 TEMPO 2112/2117 FEW040CB PROB30 TEMPO 2112/2117 -TSRA SCT040CB BECMG 2118/2120 18005KT PROB30 TEMPO 2204/2209 4000 SHRA BR SCT010 SCT045TCU